EmailTwitter


Observations de surface / France / LFMK (07635)

Régions: Québec | Canada | États-Unis | Europe | France | UK | Ailleurs
Station
Affichage
Infos & localisation pour LFMK (07635) | Aide pour décoder les METARs

Observations prises le 2018-08-20 à 18H00 UTC à CARCASSONNE/SALV, FR (LFMK)

Température: 29.0 Celsius

Point de rosée: 13.0 Celsius

Humidité relative: 37%

Indice Humidex: 32.

Vents: Ouest à 20 km/h ou 11 noeuds.

Pression au niveau moyen de la mer: 101.80 kilopascals.

Observation METAR:

LFMK 201800Z AUTO 28011KT CAVOK 29/13 Q1018 NOSIG=